createdAt,value
2022-11-30T00:01:48.929Z,49.47
2022-11-30T00:04:18.324Z,49.08
2022-11-30T00:06:47.402Z,51.40
2022-11-30T00:09:18.310Z,50.22
2022-11-30T00:11:47.707Z,43.90
2022-11-30T00:14:16.864Z,50.70
2022-11-30T00:16:46.159Z,49.17
2022-11-30T00:19:15.215Z,43.38
2022-11-30T00:21:44.704Z,43.78
2022-11-30T00:24:14.079Z,49.40
2022-11-30T00:26:44.433Z,47.38
2022-11-30T00:29:13.604Z,45.88
2022-11-30T00:31:42.770Z,51.63
2022-11-30T00:34:12.392Z,44.13
2022-11-30T00:36:41.504Z,45.97
2022-11-30T00:39:10.632Z,42.60
2022-11-30T00:41:39.902Z,47.38
2022-11-30T00:44:10.222Z,50.28
2022-11-30T00:46:39.268Z,41.15
2022-11-30T00:49:08.563Z,48.13
2022-11-30T00:51:39.086Z,50.40
2022-11-30T00:54:08.332Z,46.38
2022-11-30T00:56:37.436Z,44.42
2022-11-30T00:59:07.095Z,39.00
2022-11-30T01:01:37.636Z,50.40
2022-11-30T01:04:07.163Z,47.97
2022-11-30T01:06:36.305Z,42.28
2022-11-30T01:09:05.822Z,43.20
2022-11-30T01:11:35.001Z,46.88
2022-11-30T01:14:04.202Z,35.22
2022-11-30T01:16:34.012Z,45.22
2022-11-30T01:19:04.449Z,47.15
2022-11-30T01:21:36.809Z,37.58
2022-11-30T01:24:05.927Z,46.47
2022-11-30T01:26:34.981Z,35.47
2022-11-30T01:29:04.215Z,45.97
2022-11-30T01:31:33.216Z,43.03
2022-11-30T01:34:02.478Z,35.70
2022-11-30T01:36:34.044Z,45.88
2022-11-30T01:39:03.080Z,37.95
2022-11-30T01:41:32.899Z,36.50
2022-11-30T01:44:19.734Z,44.90
2022-11-30T01:46:51.437Z,38.90
2022-11-30T01:49:22.320Z,44.47
2022-11-30T01:51:55.453Z,45.33
2022-11-30T01:54:26.738Z,38.92
2022-11-30T01:56:58.775Z,47.05
2022-11-30T01:59:28.120Z,35.47
2022-11-30T02:01:57.472Z,46.15
2022-11-30T02:04:28.530Z,64.78
2022-11-30T02:06:59.528Z,45.47
2022-11-30T02:09:29.390Z,41.10
2022-11-30T02:11:58.889Z,39.72
2022-11-30T02:14:33.365Z,47.97
2022-11-30T02:17:08.498Z,42.25
2022-11-30T02:19:55.208Z,37.63
2022-11-30T02:22:36.016Z,35.92
2022-11-30T02:25:09.062Z,40.72
2022-11-30T02:27:46.224Z,39.17
2022-11-30T02:30:18.274Z,48.20
2022-11-30T02:32:49.385Z,36.72
2022-11-30T02:35:20.703Z,35.47
2022-11-30T02:37:50.758Z,37.45
2022-11-30T02:40:20.423Z,44.60
2022-11-30T02:42:50.181Z,38.28
2022-11-30T02:45:23.432Z,36.65
2022-11-30T02:47:57.186Z,40.88
2022-11-30T02:50:30.155Z,34.45
2022-11-30T02:52:59.388Z,29.88
2022-11-30T02:55:30.476Z,49.70
2022-11-30T02:57:59.661Z,43.03
2022-11-30T03:00:30.215Z,33.42
2022-11-30T03:02:59.310Z,41.15
2022-11-30T03:05:28.718Z,36.78
2022-11-30T03:07:57.656Z,41.17
2022-11-30T03:10:26.921Z,38.72
2022-11-30T03:12:59.124Z,41.65
2022-11-30T03:15:28.360Z,41.85
2022-11-30T03:17:58.714Z,44.17
2022-11-30T03:20:27.811Z,35.45
2022-11-30T03:22:56.811Z,40.92
2022-11-30T03:25:25.753Z,42.00
2022-11-30T03:27:54.931Z,38.90
2022-11-30T03:30:24.050Z,34.17
2022-11-30T03:32:53.211Z,39.35
2022-11-30T03:35:23.717Z,34.70
2022-11-30T03:37:52.849Z,36.90
2022-11-30T03:40:21.838Z,34.15
2022-11-30T03:42:50.902Z,35.00
2022-11-30T03:45:20.069Z,35.28
2022-11-30T03:47:49.144Z,33.95
2022-11-30T03:50:18.347Z,32.97
2022-11-30T03:52:48.697Z,37.15
2022-11-30T03:55:17.774Z,37.42
2022-11-30T03:57:46.837Z,31.85
2022-11-30T04:00:16.924Z,33.35
2022-11-30T04:02:45.979Z,27.08
2022-11-30T04:05:15.088Z,33.60
2022-11-30T04:07:44.224Z,33.95
2022-11-30T04:10:14.657Z,31.20
2022-11-30T04:12:43.643Z,30.48
2022-11-30T04:15:12.856Z,38.17
2022-11-30T04:17:41.823Z,34.55
2022-11-30T04:20:11.116Z,32.17
2022-11-30T04:22:40.299Z,28.45
2022-11-30T04:25:09.726Z,35.83
2022-11-30T04:27:40.079Z,37.85
2022-11-30T04:30:10.109Z,35.22
2022-11-30T04:32:39.188Z,36.05
2022-11-30T04:35:08.644Z,33.83
2022-11-30T04:37:37.605Z,34.72
2022-11-30T04:40:07.777Z,37.78
2022-11-30T04:42:36.738Z,33.10
2022-11-30T04:45:07.589Z,33.70
2022-11-30T04:47:36.644Z,26.70
2022-11-30T04:50:19.493Z,31.85
2022-11-30T04:53:03.151Z,32.88
2022-11-30T04:55:34.403Z,32.05
2022-11-30T04:58:03.601Z,34.90
2022-11-30T05:00:34.383Z,40.35
2022-11-30T05:03:04.598Z,30.80
2022-11-30T05:05:33.739Z,30.90
2022-11-30T05:08:03.105Z,36.67
2022-11-30T05:10:33.828Z,38.15
2022-11-30T05:13:03.621Z,31.23
2022-11-30T05:15:34.310Z,35.70
2022-11-30T05:18:03.560Z,34.63
2022-11-30T05:20:32.552Z,37.33
2022-11-30T05:23:01.625Z,34.47
2022-11-30T05:25:30.650Z,35.50
2022-11-30T05:27:59.650Z,43.85
2022-11-30T05:30:28.721Z,34.03
2022-11-30T05:32:59.122Z,40.60
2022-11-30T05:35:28.464Z,34.03
2022-11-30T05:37:57.419Z,45.15
2022-11-30T05:40:28.041Z,37.60
2022-11-30T05:42:57.641Z,44.97
2022-11-30T05:45:26.693Z,39.60
2022-11-30T05:47:55.740Z,38.97
2022-11-30T05:50:25.986Z,43.45
2022-11-30T05:52:56.234Z,39.58
2022-11-30T05:55:25.323Z,42.85
2022-11-30T05:57:54.636Z,42.38
2022-11-30T06:00:24.012Z,42.67
2022-11-30T06:02:57.244Z,39.97
2022-11-30T06:05:27.931Z,38.10
2022-11-30T06:07:57.016Z,41.72
2022-11-30T06:10:27.416Z,33.45
2022-11-30T06:12:56.697Z,35.13
2022-11-30T06:15:25.724Z,47.00
2022-11-30T06:17:57.335Z,26.67
2022-11-30T06:20:27.949Z,32.03
2022-11-30T06:22:57.498Z,34.50
2022-11-30T06:25:26.572Z,35.88
2022-11-30T06:27:55.955Z,42.38
2022-11-30T06:30:25.177Z,36.00
2022-11-30T06:32:54.178Z,39.72
2022-11-30T06:35:23.204Z,56.83
2022-11-30T06:37:54.703Z,32.50
2022-11-30T06:40:23.902Z,35.95
2022-11-30T06:42:52.937Z,33.65
2022-11-30T06:45:21.913Z,28.13
2022-11-30T06:47:51.054Z,29.33
2022-11-30T06:50:20.135Z,28.88
2022-11-30T06:52:49.079Z,40.63
2022-11-30T06:55:19.664Z,38.63
2022-11-30T06:57:48.869Z,34.78
2022-11-30T07:00:19.053Z,38.42
2022-11-30T07:02:48.026Z,45.30
2022-11-30T07:05:17.126Z,57.42
2022-11-30T07:07:46.364Z,39.83
2022-11-30T07:10:19.895Z,42.70
2022-11-30T07:12:51.279Z,44.97
2022-11-30T07:15:20.726Z,45.38
2022-11-30T07:17:51.631Z,51.35
2022-11-30T07:20:21.235Z,42.95
2022-11-30T07:22:53.734Z,41.40
2022-11-30T07:25:46.778Z,33.72
2022-11-30T07:28:17.816Z,38.72
2022-11-30T07:30:50.371Z,49.23
2022-11-30T07:33:21.743Z,34.85
2022-11-30T07:35:57.735Z,32.58
2022-11-30T07:38:29.872Z,38.05
2022-11-30T07:40:59.445Z,54.63
2022-11-30T07:43:30.853Z,43.22
2022-11-30T07:46:01.221Z,51.70
2022-11-30T07:48:39.216Z,43.00
2022-11-30T07:51:14.365Z,45.50
2022-11-30T07:53:44.042Z,69.45
2022-11-30T07:56:15.832Z,75.50
2022-11-30T07:58:48.875Z,39.58
2022-11-30T08:01:21.672Z,33.95
2022-11-30T08:03:51.159Z,59.88
2022-11-30T08:06:24.325Z,43.08
2022-11-30T08:08:55.140Z,33.92
2022-11-30T08:11:27.304Z,31.27
2022-11-30T08:14:01.593Z,33.05
2022-11-30T08:16:35.171Z,26.75
2022-11-30T08:19:04.583Z,40.67
2022-11-30T08:21:35.803Z,42.72
2022-11-30T08:24:08.191Z,92.60
2022-11-30T08:26:41.080Z,24.05
2022-11-30T08:29:12.580Z,53.17
2022-11-30T08:31:43.178Z,27.92
2022-11-30T08:34:13.224Z,26.25
2022-11-30T08:36:44.915Z,36.03
2022-11-30T08:39:18.034Z,23.15
2022-11-30T08:41:47.363Z,27.65
2022-11-30T08:44:17.865Z,34.95
2022-11-30T08:49:36.064Z,27.23
2022-11-30T08:52:20.612Z,32.25
2022-11-30T08:54:50.889Z,29.42
2022-11-30T08:57:21.159Z,27.30
2022-11-30T08:59:51.727Z,24.48
2022-11-30T09:02:21.024Z,24.58
2022-11-30T09:04:51.776Z,29.48
2022-11-30T09:07:21.130Z,14.27
2022-11-30T09:09:50.262Z,19.60
2022-11-30T09:12:19.314Z,22.65
2022-11-30T09:14:57.370Z,19.40
2022-11-30T09:17:27.578Z,17.10
2022-11-30T09:19:56.704Z,20.55
2022-11-30T09:22:52.248Z,17.95
2022-11-30T09:25:21.707Z,19.63
2022-11-30T09:27:56.558Z,23.60
2022-11-30T09:30:27.787Z,17.63
2022-11-30T09:32:57.418Z,18.23
2022-11-30T09:35:26.767Z,19.05
2022-11-30T09:37:55.880Z,21.08
2022-11-30T09:40:34.053Z,20.92
2022-11-30T09:45:39.152Z,24.20
2022-11-30T09:48:18.416Z,18.65
2022-11-30T09:50:57.853Z,21.95
2022-11-30T09:53:37.000Z,22.50
2022-11-30T09:56:08.259Z,16.10
2022-11-30T09:58:43.079Z,19.88
2022-11-30T10:01:19.259Z,13.25
2022-11-30T10:03:48.861Z,15.73
2022-11-30T10:06:21.576Z,16.23
2022-11-30T10:08:56.485Z,15.45
2022-11-30T10:11:53.344Z,15.70
2022-11-30T10:14:57.266Z,17.77
2022-11-30T10:17:40.330Z,15.15
2022-11-30T10:20:24.972Z,14.02
2022-11-30T10:23:01.457Z,15.23
2022-11-30T10:25:34.899Z,14.70
2022-11-30T10:28:30.886Z,15.55
2022-11-30T10:30:57.556Z,14.00
2022-11-30T10:33:35.357Z,17.27
2022-11-30T10:36:20.126Z,16.27
2022-11-30T10:38:57.664Z,16.58
2022-11-30T10:41:33.184Z,16.65
2022-11-30T10:44:06.655Z,14.73
2022-11-30T10:46:37.015Z,13.77
2022-11-30T10:49:09.200Z,11.98
2022-11-30T10:51:40.921Z,14.35
2022-11-30T10:54:16.558Z,17.70
2022-11-30T10:56:45.685Z,15.55
2022-11-30T10:59:19.781Z,16.83
2022-11-30T11:01:53.675Z,15.13
2022-11-30T11:04:30.872Z,14.23
2022-11-30T11:07:04.647Z,14.75
2022-11-30T11:09:47.491Z,17.48
2022-11-30T11:12:19.662Z,13.15
2022-11-30T11:17:26.287Z,15.73
2022-11-30T11:19:57.564Z,14.57
2022-11-30T11:22:27.958Z,17.02
2022-11-30T11:25:09.147Z,14.60
2022-11-30T11:27:42.976Z,23.83
2022-11-30T11:30:20.828Z,17.52
2022-11-30T11:32:59.651Z,16.67
2022-11-30T11:35:40.941Z,18.17
2022-11-30T11:38:20.303Z,17.15
2022-11-30T11:41:01.448Z,14.75
2022-11-30T11:43:31.668Z,16.65
2022-11-30T11:46:03.792Z,21.33
2022-11-30T11:48:36.009Z,13.88
2022-11-30T11:51:10.233Z,15.80
2022-11-30T11:53:46.323Z,18.15
2022-11-30T11:56:22.778Z,17.52
2022-11-30T11:58:53.197Z,17.35
2022-11-30T12:01:39.902Z,16.10
2022-11-30T12:04:18.719Z,16.73
2022-11-30T12:06:58.835Z,19.85
2022-11-30T12:09:31.179Z,19.42
2022-11-30T12:12:11.142Z,14.88
2022-11-30T12:14:40.616Z,14.00
2022-11-30T12:17:21.998Z,20.08
2022-11-30T12:19:56.848Z,21.10
2022-11-30T12:22:35.204Z,17.73
2022-11-30T12:25:16.430Z,12.43
2022-11-30T12:27:53.815Z,13.80
2022-11-30T12:30:25.424Z,17.83
2022-11-30T12:33:15.393Z,17.93
2022-11-30T12:35:51.345Z,16.48
2022-11-30T12:38:28.063Z,22.27
2022-11-30T12:41:01.105Z,15.20
2022-11-30T12:43:38.117Z,26.83
2022-11-30T12:46:09.910Z,15.55
2022-11-30T12:48:43.491Z,12.57
2022-11-30T12:51:22.829Z,16.08
2022-11-30T12:54:00.959Z,13.93
2022-11-30T12:56:35.158Z,14.07
2022-11-30T12:59:10.359Z,13.45
2022-11-30T13:01:45.908Z,16.55
2022-11-30T13:04:18.889Z,18.15
2022-11-30T13:06:49.273Z,17.27
2022-11-30T13:09:23.137Z,13.98
2022-11-30T13:11:55.355Z,17.95
2022-11-30T13:14:25.866Z,18.27
2022-11-30T13:17:01.340Z,16.27
2022-11-30T13:19:47.071Z,15.43
2022-11-30T13:22:19.116Z,15.85
2022-11-30T13:24:55.864Z,16.65
2022-11-30T13:27:28.737Z,13.68
2022-11-30T13:30:22.183Z,16.80
2022-11-30T13:32:59.173Z,16.42
2022-11-30T13:35:42.599Z,16.08
2022-11-30T13:38:36.479Z,18.17
2022-11-30T13:41:09.485Z,19.17
2022-11-30T13:43:41.962Z,20.27
2022-11-30T13:46:16.460Z,17.25
2022-11-30T13:48:46.431Z,23.33
2022-11-30T13:51:16.023Z,18.92
2022-11-30T13:53:45.338Z,17.85
2022-11-30T13:56:35.385Z,17.05
2022-11-30T13:59:23.811Z,22.30
2022-11-30T14:01:53.191Z,16.10
2022-11-30T14:04:24.994Z,23.05
2022-11-30T14:06:55.429Z,20.58
2022-11-30T14:09:45.211Z,17.48
2022-11-30T14:12:29.175Z,19.02
2022-11-30T14:15:03.009Z,23.02
2022-11-30T14:17:35.597Z,18.55
2022-11-30T14:20:11.031Z,17.85
2022-11-30T14:22:42.085Z,21.80
2022-11-30T14:25:14.618Z,18.17
2022-11-30T14:27:44.570Z,19.38
2022-11-30T14:30:19.145Z,22.55
2022-11-30T14:32:51.160Z,19.70
2022-11-30T14:35:22.022Z,19.75
2022-11-30T14:37:54.589Z,21.25
2022-11-30T14:40:25.603Z,21.33
2022-11-30T14:42:55.928Z,22.77
2022-11-30T14:45:27.886Z,19.10
2022-11-30T14:48:08.471Z,22.88
2022-11-30T14:50:42.898Z,21.25
2022-11-30T14:53:26.197Z,20.67
2022-11-30T14:55:59.691Z,24.85
2022-11-30T14:58:33.426Z,26.85
2022-11-30T15:01:12.635Z,29.25
2022-11-30T15:03:42.040Z,23.55
2022-11-30T15:06:19.211Z,25.83
2022-11-30T15:08:50.144Z,29.08
2022-11-30T15:11:19.699Z,26.58
2022-11-30T15:13:49.924Z,29.30
2022-11-30T15:16:24.353Z,28.80
2022-11-30T15:18:54.855Z,29.27
2022-11-30T15:21:33.798Z,27.48
2022-11-30T15:24:05.220Z,27.48
2022-11-30T15:26:43.920Z,26.65
2022-11-30T15:29:17.032Z,28.00
2022-11-30T15:31:53.083Z,26.73
2022-11-30T15:34:28.741Z,24.30
2022-11-30T15:37:00.247Z,28.77
2022-11-30T15:39:30.854Z,29.25
2022-11-30T15:42:09.280Z,25.13
2022-11-30T15:44:44.160Z,33.40
2022-11-30T15:47:29.598Z,26.20
2022-11-30T15:49:59.082Z,30.23
2022-11-30T15:52:35.643Z,34.78
2022-11-30T15:55:07.721Z,44.00
2022-11-30T15:57:51.934Z,37.38
2022-11-30T16:00:24.071Z,40.33
2022-11-30T16:05:35.282Z,41.35
2022-11-30T16:08:06.397Z,47.25
2022-11-30T16:10:37.527Z,40.03
2022-11-30T16:13:07.590Z,40.05
2022-11-30T16:15:39.177Z,42.33
2022-11-30T16:18:15.452Z,44.85
2022-11-30T16:20:50.625Z,45.90
2022-11-30T16:23:20.291Z,45.03
2022-11-30T16:25:50.718Z,47.80
2022-11-30T16:28:20.881Z,47.47
2022-11-30T16:30:53.455Z,43.83
2022-11-30T16:33:23.417Z,40.33
2022-11-30T16:35:56.734Z,46.90
2022-11-30T16:38:26.418Z,43.55
2022-11-30T16:40:56.681Z,40.40
2022-11-30T16:43:26.783Z,36.25
2022-11-30T16:45:55.960Z,35.47
2022-11-30T16:48:25.305Z,39.45
2022-11-30T16:50:56.478Z,40.38
2022-11-30T16:53:28.706Z,40.28
2022-11-30T16:55:58.530Z,36.30
2022-11-30T16:58:27.888Z,36.95
2022-11-30T17:01:00.303Z,37.03
2022-11-30T17:03:32.097Z,40.03
2022-11-30T17:06:02.664Z,41.60
2022-11-30T17:08:31.877Z,39.42
2022-11-30T17:11:00.935Z,33.70
2022-11-30T17:13:30.172Z,33.28
2022-11-30T17:16:04.710Z,36.22
2022-11-30T17:18:33.949Z,37.10
2022-11-30T17:21:04.691Z,35.53
2022-11-30T17:23:33.890Z,40.28
2022-11-30T17:26:03.369Z,37.67
2022-11-30T17:28:32.597Z,32.72
2022-11-30T17:31:01.940Z,38.58
2022-11-30T17:33:35.720Z,34.00
2022-11-30T17:36:08.906Z,34.35
2022-11-30T17:38:38.738Z,35.22
2022-11-30T17:41:17.077Z,35.83
2022-11-30T17:43:49.922Z,33.95
2022-11-30T17:46:20.223Z,36.70
2022-11-30T17:48:49.948Z,34.17
2022-11-30T17:51:22.161Z,31.30
2022-11-30T17:53:51.428Z,28.23
2022-11-30T17:56:20.823Z,30.13
2022-11-30T17:58:50.187Z,30.15
2022-11-30T18:01:20.465Z,33.10
2022-11-30T18:03:49.880Z,30.63
2022-11-30T18:06:21.014Z,34.40
2022-11-30T18:08:50.613Z,37.90
2022-11-30T18:11:21.073Z,30.08
2022-11-30T18:13:53.962Z,32.22
2022-11-30T18:16:25.112Z,28.92
2022-11-30T18:18:56.351Z,33.40
2022-11-30T18:21:27.774Z,27.33
2022-11-30T18:23:57.125Z,32.40
2022-11-30T18:26:27.339Z,31.95
2022-11-30T18:29:00.441Z,28.08
2022-11-30T18:31:30.332Z,28.88
2022-11-30T18:34:01.024Z,30.13
2022-11-30T18:36:32.084Z,34.75
2022-11-30T18:39:05.396Z,30.88
2022-11-30T18:41:35.001Z,29.50
2022-11-30T18:44:06.477Z,31.98
2022-11-30T18:46:35.972Z,29.17
2022-11-30T18:49:07.967Z,31.98
2022-11-30T18:51:38.896Z,32.10
2022-11-30T18:54:08.559Z,31.92
2022-11-30T18:56:38.270Z,29.42
2022-11-30T18:59:08.567Z,31.33
2022-11-30T19:01:41.024Z,39.33
2022-11-30T19:04:11.497Z,29.40
2022-11-30T19:06:43.568Z,32.60
2022-11-30T19:09:22.360Z,35.55
2022-11-30T19:11:52.579Z,28.95
2022-11-30T19:14:22.035Z,28.90
2022-11-30T19:16:51.313Z,28.42
2022-11-30T19:19:21.688Z,33.03
2022-11-30T19:21:55.184Z,34.22
2022-11-30T19:24:24.867Z,33.90
2022-11-30T19:26:54.277Z,31.00
2022-11-30T19:29:23.299Z,47.28
2022-11-30T19:31:52.416Z,42.65
2022-11-30T19:34:21.791Z,39.88
2022-11-30T19:36:52.328Z,39.10
2022-11-30T19:39:21.656Z,37.80
2022-11-30T19:41:50.706Z,44.40
2022-11-30T19:44:19.873Z,42.85
2022-11-30T19:46:48.907Z,41.03
2022-11-30T19:49:17.921Z,42.75
2022-11-30T19:51:47.389Z,38.75
2022-11-30T19:54:17.798Z,40.88
2022-11-30T19:56:47.136Z,40.95
2022-11-30T19:59:16.489Z,43.67
2022-11-30T20:01:45.873Z,46.03
2022-11-30T20:04:15.381Z,37.33
2022-11-30T20:06:44.573Z,44.17
2022-11-30T20:09:14.131Z,44.28
2022-11-30T20:11:44.715Z,40.58
2022-11-30T20:14:17.853Z,45.65
2022-11-30T20:16:47.043Z,40.45
2022-11-30T20:19:19.144Z,39.20
2022-11-30T20:21:48.763Z,44.28
2022-11-30T20:24:18.819Z,46.50
2022-11-30T20:26:52.703Z,49.20
2022-11-30T20:29:24.435Z,44.08
2022-11-30T20:31:53.823Z,47.80
2022-11-30T20:34:23.894Z,38.55
2022-11-30T20:36:53.212Z,38.33
2022-11-30T20:39:22.688Z,37.17
2022-11-30T20:41:54.600Z,38.05
2022-11-30T20:44:23.904Z,37.00
2022-11-30T20:46:53.218Z,42.47
2022-11-30T20:49:22.466Z,38.92
2022-11-30T20:51:54.681Z,36.58
2022-11-30T20:54:23.896Z,34.47
2022-11-30T20:56:54.682Z,37.55
2022-11-30T20:59:26.696Z,35.03
2022-11-30T21:01:59.585Z,35.75
2022-11-30T21:04:28.725Z,38.17
2022-11-30T21:06:58.308Z,36.67
2022-11-30T21:09:27.496Z,36.92
2022-11-30T21:11:59.634Z,33.55
2022-11-30T21:14:29.013Z,39.58
2022-11-30T21:16:58.717Z,39.67
2022-11-30T21:19:28.195Z,34.03
2022-11-30T21:21:59.272Z,39.38
2022-11-30T21:24:28.739Z,39.20
2022-11-30T21:26:59.185Z,41.97
2022-11-30T21:29:28.191Z,36.15
2022-11-30T21:31:57.493Z,34.47
2022-11-30T21:34:28.836Z,36.45
2022-11-30T21:36:58.591Z,36.38
2022-11-30T21:39:28.421Z,36.58
2022-11-30T21:42:01.473Z,38.95
2022-11-30T21:44:31.459Z,42.47
2022-11-30T21:47:00.875Z,37.53
2022-11-30T21:49:33.097Z,35.10
2022-11-30T21:52:02.204Z,34.15
2022-11-30T21:54:31.902Z,34.78
2022-11-30T21:57:03.399Z,36.10
2022-11-30T21:59:33.059Z,37.60
2022-11-30T22:02:04.450Z,33.92
2022-11-30T22:04:38.276Z,34.20
2022-11-30T22:07:07.972Z,33.78
2022-11-30T22:09:40.115Z,40.42
2022-11-30T22:12:11.050Z,37.03
2022-11-30T22:14:40.397Z,39.20
2022-11-30T22:17:09.933Z,39.55
2022-11-30T22:19:39.400Z,38.42
2022-11-30T22:22:08.373Z,38.05
2022-11-30T22:24:37.475Z,38.75
2022-11-30T22:27:16.119Z,37.78
2022-11-30T22:29:48.367Z,38.47
2022-11-30T22:32:20.857Z,39.60
2022-11-30T22:34:50.089Z,37.03
2022-11-30T22:37:19.162Z,35.97
2022-11-30T22:39:48.593Z,40.15
2022-11-30T22:42:20.634Z,36.67
2022-11-30T22:44:51.352Z,41.28
2022-11-30T22:47:22.682Z,34.10
2022-11-30T22:49:52.043Z,38.00
2022-11-30T22:52:36.485Z,42.70
2022-11-30T22:55:10.929Z,34.15
2022-11-30T22:57:40.264Z,37.22
2022-11-30T23:00:12.318Z,35.40
2022-11-30T23:02:41.529Z,40.78
2022-11-30T23:05:13.474Z,36.08
2022-11-30T23:07:47.500Z,36.08
2022-11-30T23:10:19.066Z,37.97
2022-11-30T23:12:59.640Z,34.58
2022-11-30T23:15:33.778Z,32.90
2022-11-30T23:18:03.356Z,37.03
2022-11-30T23:20:33.074Z,36.47
2022-11-30T23:23:02.252Z,36.40
2022-11-30T23:25:31.560Z,33.38
2022-11-30T23:28:00.644Z,37.40
2022-11-30T23:30:29.641Z,39.25
2022-11-30T23:33:00.181Z,29.48
2022-11-30T23:35:29.357Z,34.53
2022-11-30T23:37:58.549Z,34.47
2022-11-30T23:40:27.871Z,34.50
2022-11-30T23:42:56.957Z,37.58
2022-11-30T23:45:25.937Z,37.00
2022-11-30T23:47:55.235Z,37.58
2022-11-30T23:50:26.121Z,35.50
2022-11-30T23:52:55.582Z,38.58
2022-11-30T23:55:25.001Z,32.78
2022-11-30T23:57:57.338Z,34.55
